Time;durP1;ratioP1;P1;durP2;ratioP2;P2;SDS_P1;SDS_P2;PMS_P1;PMS_P2;Temp;Humidity;BMP_temperature;BMP_pressure;BME280_temperature;BME280_humidity;BME280_pressure;Samples;Min_cycle;Max_cycle;Signal;HPM_P1;HPM_P2
2022/08/03 00:02:13;;;;;;;8.20;1.63;;;;;;;17.73;79.16;99011.44;5147777;27;20047;-83
2022/08/03 00:04:39;;;;;;;5.45;1.75;;;;;;;17.74;79.32;98987.56;5151017;27;20050;-83
2022/08/03 00:07:06;;;;;;;3.83;1.83;;;;;;;17.76;79.73;99008.22;5151981;27;20063;-83
2022/08/03 00:09:33;;;;;;;2.70;2.08;;;;;;;17.82;78.75;99021.03;5147489;27;20492;-83
2022/08/03 00:11:59;;;;;;;4.07;1.70;;;;;;;17.87;78.20;99012.91;5151908;27;20031;-83
2022/08/03 00:14:26;;;;;;;3.28;1.90;;;;;;;17.93;77.40;99005.69;5148335;27;20038;-82
2022/08/03 00:16:54;;;;;;;3.72;1.63;;;;;;;17.87;76.57;98990.91;5154455;27;20049;-83
2022/08/03 00:19:20;;;;;;;1.90;1.60;;;;;;;17.94;77.27;98990.00;5147268;27;20045;-83
2022/08/03 00:21:47;;;;;;;2.00;1.70;;;;;;;17.90;78.08;98994.28;5149258;27;20402;-83
2022/08/03 00:24:14;;;;;;;2.00;1.80;;;;;;;17.91;79.03;99007.81;5149447;27;20453;-83
2022/08/03 00:26:40;;;;;;;1.90;1.65;;;;;;;18.00;78.42;98991.81;5149246;27;20041;-83
2022/08/03 00:29:07;;;;;;;2.08;1.80;;;;;;;18.09;78.46;99008.78;5154061;27;20624;-83
2022/08/03 00:31:34;;;;;;;5.90;1.55;;;;;;;17.97;76.69;98995.03;5148610;27;20045;-83
2022/08/03 00:34:02;;;;;;;2.00;1.80;;;;;;;17.95;76.76;99003.50;5150931;27;20051;-83
2022/08/03 00:36:28;;;;;;;2.03;1.80;;;;;;;17.79;76.66;98994.00;5160634;27;20054;-83
2022/08/03 00:38:55;;;;;;;2.33;1.80;;;;;;;17.75;76.53;98984.56;5167864;27;20473;-83
2022/08/03 00:41:22;;;;;;;2.90;2.05;;;;;;;17.64;76.89;98977.97;5148359;27;20047;-83
2022/08/03 00:43:49;;;;;;;4.03;1.50;;;;;;;17.55;78.32;98995.84;5148219;27;20471;-83
2022/08/03 00:46:16;;;;;;;2.42;1.95;;;;;;;17.41;79.80;98997.16;5149959;27;20528;-83
2022/08/03 00:48:43;;;;;;;2.20;2.00;;;;;;;17.45;79.46;98987.38;5150206;27;20038;-82
2022/08/03 00:51:11;;;;;;;2.35;1.88;;;;;;;17.45;80.04;98979.94;5143406;27;20047;-82
2022/08/03 00:53:38;;;;;;;2.72;2.28;;;;;;;17.39;81.44;98988.28;5138024;27;20049;-83
2022/08/03 00:56:05;;;;;;;7.47;2.28;;;;;;;17.54;80.72;98998.84;5132468;27;20046;-82
2022/08/03 00:58:31;;;;;;;2.53;2.03;;;;;;;17.66;80.08;99000.56;5146329;27;20052;-82
2022/08/03 01:00:58;;;;;;;2.22;1.83;;;;;;;17.52;80.70;98999.94;5152521;27;20051;-83
2022/08/03 01:03:25;;;;;;;2.80;2.13;;;;;;;17.41;81.92;99008.13;5151404;27;20103;-83
2022/08/03 01:06:00;;;;;;;1.92;1.45;;;;;;;17.34;82.09;98988.97;5150310;27;20066;-83
2022/08/03 01:08:42;;;;;;;2.97;2.10;;;;;;;17.16;83.09;98978.88;5152496;27;20409;-82
2022/08/03 01:11:15;;;;;;;2.17;1.88;;;;;;;17.37;82.00;98987.69;5150131;27;20399;-83
2022/08/03 01:13:48;;;;;;;2.83;1.73;;;;;;;17.50;80.46;98988.31;5144105;27;20038;-82
2022/08/03 01:16:19;;;;;;;2.35;1.67;;;;;;;17.59;80.04;98991.56;5151199;27;20496;-82
2022/08/03 01:18:51;;;;;;;8.82;1.90;;;;;;;17.46;80.11;98958.78;5152835;27;20039;-82
2022/08/03 01:21:25;;;;;;;2.80;1.92;;;;;;;17.31;82.20;98970.22;5148424;27;20071;-82
2022/08/03 01:24:19;;;;;;;6.18;2.03;;;;;;;17.45;82.71;98988.19;5156372;27;20051;-82
2022/08/03 01:27:00;;;;;;;3.72;2.03;;;;;;;17.43;82.16;98968.38;5151846;27;20126;-82
2022/08/03 01:29:59;;;;;;;1.90;1.70;;;;;;;17.50;83.56;98991.06;5150342;27;20039;-81
2022/08/03 01:32:35;;;;;;;6.50;2.88;;;;;;;17.66;82.57;98986.81;5150710;27;20103;-82
2022/08/03 01:35:06;;;;;;;3.10;1.80;;;;;;;17.63;82.62;98987.28;5147801;27;20455;-82
2022/08/03 01:37:39;;;;;;;3.42;2.05;;;;;;;17.40;83.39;98971.56;5151857;27;20046;-82
2022/08/03 01:40:09;;;;;;;4.22;1.77;;;;;;;17.38;82.21;98957.22;5150229;27;20055;-82
2022/08/03 01:42:37;;;;;;;3.83;2.13;;;;;;;17.53;81.89;98981.53;5143878;27;20373;-82
2022/08/03 01:45:07;;;;;;;2.63;2.10;;;;;;;17.38;83.10;98959.97;5148068;27;20483;-82
2022/08/03 01:47:35;;;;;;;5.72;1.75;;;;;;;17.18;84.18;98943.78;5150763;27;20042;-81
2022/08/03 01:50:03;;;;;;;2.63;1.88;;;;;;;17.29;84.38;98969.63;5159482;27;20066;-81
2022/08/03 01:52:32;;;;;;;2.88;2.10;;;;;;;17.09;84.42;98939.69;5168173;27;20051;-81
2022/08/03 01:55:01;;;;;;;2.92;1.77;;;;;;;17.13;85.68;98958.22;5169211;27;20054;-81
2022/08/03 01:57:29;;;;;;;4.60;1.85;;;;;;;17.16;85.72;98960.50;5160888;27;20057;-81
2022/08/03 01:59:59;;;;;;;2.40;2.00;;;;;;;17.21;85.12;98957.06;5157957;27;20050;-82
2022/08/03 02:02:29;;;;;;;4.28;2.25;;;;;;;17.15;85.77;98947.00;5150979;27;20522;-81
2022/08/03 02:05:00;;;;;;;2.17;1.63;;;;;;;17.06;85.34;98934.69;5152104;27;20074;-81
2022/08/03 02:07:29;;;;;;;2.03;1.83;;;;;;;17.12;85.71;98945.56;5152304;27;20054;-81
2022/08/03 02:09:57;;;;;;;2.78;2.13;;;;;;;17.03;86.42;98932.41;5140158;27;20469;-81
2022/08/03 02:12:26;;;;;;;2.17;1.80;;;;;;;17.09;88.13;98964.41;5155903;27;20047;-82
2022/08/03 02:14:56;;;;;;;2.60;2.00;;;;;;;17.18;87.46;98952.03;5149765;27;20385;-82
2022/08/03 02:17:25;;;;;;;2.42;1.80;;;;;;;17.14;86.53;98937.91;5147769;27;21007;-81
2022/08/03 02:19:54;;;;;;;1.92;1.80;;;;;;;17.20;86.85;98960.03;5157879;27;20042;-82
2022/08/03 02:22:22;;;;;;;2.92;2.72;;;;;;;17.17;86.24;98959.41;5157474;27;20137;-82
2022/08/03 02:24:49;;;;;;;2.25;2.00;;;;;;;17.21;87.25;98976.28;5155664;27;20072;-82
2022/08/03 02:27:20;;;;;;;4.65;2.13;;;;;;;17.05;88.31;98965.94;5153023;27;20055;-82
2022/08/03 02:29:52;;;;;;;2.63;1.75;;;;;;;16.89;89.69;98964.66;5158011;27;20057;-82
2022/08/03 02:32:24;;;;;;;2.70;2.08;;;;;;;16.89;89.81;98962.78;5157122;27;20047;-81
2022/08/03 02:34:56;;;;;;;3.85;2.22;;;;;;;16.75;90.14;98947.50;5153072;27;20038;-82
2022/08/03 02:37:27;;;;;;;2.97;2.03;;;;;;;16.83;90.42;98962.81;5157957;27;20137;-82
2022/08/03 02:39:59;;;;;;;1.77;1.65;;;;;;;16.81;89.70;98957.56;5157421;27;20039;-82
2022/08/03 02:42:27;;;;;;;2.33;2.13;;;;;;;16.87;89.08;98961.31;5157721;27;20054;-82
2022/08/03 02:44:56;;;;;;;3.60;1.90;;;;;;;16.74;88.40;98934.84;5156971;27;20054;-82
2022/08/03 02:47:26;;;;;;;4.90;2.08;;;;;;;16.68;91.11;98950.34;5149848;27;20042;-82
2022/08/03 02:49:57;;;;;;;5.60;2.60;;;;;;;16.58;91.57;98964.59;5156712;27;20043;-82
2022/08/03 02:52:26;;;;;;;3.55;2.05;;;;;;;16.63;90.43;98953.78;5156930;27;20082;-82
2022/08/03 02:54:56;;;;;;;2.35;1.92;;;;;;;16.54;91.12;98951.56;5157124;27;20045;-82
2022/08/03 02:57:25;;;;;;;2.17;1.98;;;;;;;16.51;91.71;98950.09;5157062;27;20053;-82
2022/08/03 02:59:53;;;;;;;2.20;1.95;;;;;;;16.26;92.03;98923.59;5147958;27;20038;-82
2022/08/03 03:02:20;;;;;;;2.20;2.00;;;;;;;16.31;93.90;98963.22;5157183;27;20463;-83
2022/08/03 03:04:50;;;;;;;3.63;2.20;;;;;;;16.14;95.04;98939.13;5157351;27;20133;-83
2022/08/03 03:07:19;;;;;;;2.47;2.00;;;;;;;16.12;95.55;98943.97;5157657;27;20057;-84
2022/08/03 03:09:47;;;;;;;4.40;2.10;;;;;;;16.04;96.35;98968.97;5157323;27;20057;-82
2022/08/03 03:12:14;;;;;;;2.42;2.13;;;;;;;16.09;95.82;98966.38;5156998;27;20043;-82
2022/08/03 03:14:41;;;;;;;2.50;2.30;;;;;;;16.07;96.30;98965.78;5156083;27;20487;-83
2022/08/03 03:17:10;;;;;;;2.13;1.83;;;;;;;16.15;94.78;98965.47;5154702;27;20079;-82
2022/08/03 03:19:39;;;;;;;2.33;1.93;;;;;;;16.19;92.26;98954.91;5152524;27;20135;-82
2022/08/03 03:22:08;;;;;;;2.47;2.28;;;;;;;16.08;92.06;98937.28;5137360;27;20042;-82
2022/08/03 03:24:37;;;;;;;2.90;2.00;;;;;;;16.20;91.81;98954.66;5156937;27;20608;-82
2022/08/03 03:27:05;;;;;;;2.60;2.00;;;;;;;16.06;93.40;98942.16;5156792;27;20696;-82
2022/08/03 03:29:33;;;;;;;2.38;2.00;;;;;;;16.09;94.28;98959.00;5156476;27;20074;-82
2022/08/03 03:32:01;;;;;;;7.70;2.17;;;;;;;15.96;95.56;98955.53;5155903;27;20412;-82
2022/08/03 03:34:29;;;;;;;2.38;2.17;;;;;;;15.87;95.82;98938.56;5156116;27;20043;-83
2022/08/03 03:36:56;;;;;;;4.03;1.98;;;;;;;15.84;96.55;98937.09;5150656;27;20050;-82
2022/08/03 03:39:22;;;;;;;3.92;1.85;;;;;;;15.96;96.35;98964.63;5136100;27;20043;-83
2022/08/03 03:41:51;;;;;;;2.38;2.05;;;;;;;16.01;95.84;98952.97;5154149;27;20433;-82
2022/08/03 03:44:17;;;;;;;6.35;2.35;;;;;;;16.04;95.24;98950.59;5153193;27;20074;-82
2022/08/03 03:46:44;;;;;;;3.35;2.45;;;;;;;15.93;94.93;98946.69;5152248;27;20046;-82
2022/08/03 03:49:11;;;;;;;5.90;2.40;;;;;;;15.79;95.77;98945.13;5154529;27;20047;-82
2022/08/03 03:51:37;;;;;;;2.90;2.10;;;;;;;15.91;96.08;98953.47;5147647;27;20043;-82
2022/08/03 03:54:05;;;;;;;2.30;2.05;;;;;;;15.88;94.84;98932.84;5154995;27;20402;-82
2022/08/03 03:56:32;;;;;;;3.35;2.75;;;;;;;15.81;94.81;98934.78;5146329;27;20526;-82
2022/08/03 03:59:00;;;;;;;1.92;1.75;;;;;;;15.81;96.12;98953.97;5156211;27;20494;-81
2022/08/03 04:01:27;;;;;;;2.75;2.20;;;;;;;15.86;96.21;98962.38;5155985;27;20057;-82
2022/08/03 04:03:53;;;;;;;2.67;2.28;;;;;;;15.87;95.32;98942.13;5137026;27;20051;-82
2022/08/03 04:11:51;;;;;;;2.47;2.25;;;;;;;15.71;97.55;98946.22;5149465;27;20515;-82
2022/08/03 04:14:23;;;;;;;2.65;1.98;;;;;;;15.70;98.71;98961.00;5145380;27;20046;-82
2022/08/03 04:16:52;;;;;;;2.40;2.20;;;;;;;15.68;98.24;98963.13;5155393;27;20054;-81
2022/08/03 04:19:35;;;;;;;5.88;2.30;;;;;;;15.81;97.59;98969.59;5143048;27;20042;-82
2022/08/03 04:22:05;;;;;;;2.40;2.15;;;;;;;15.86;97.19;98972.50;5154222;27;20051;-82
2022/08/03 04:24:35;;;;;;;4.00;2.00;;;;;;;15.89;96.96;98961.91;5155608;27;20050;-82
2022/08/03 04:27:07;;;;;;;2.70;2.33;;;;;;;15.77;95.67;98955.47;5154739;27;20053;-82
2022/08/03 04:29:39;;;;;;;2.15;1.95;;;;;;;15.96;95.62;98969.22;5154587;27;20034;-82
2022/08/03 04:32:07;;;;;;;3.67;2.10;;;;;;;15.93;95.55;98957.66;5148030;27;20146;-82
2022/08/03 04:34:35;;;;;;;3.67;2.20;;;;;;;16.09;95.49;98961.75;5154812;27;20043;-82
2022/08/03 04:37:09;;;;;;;3.60;2.13;;;;;;;16.05;95.86;98973.41;5154834;27;20046;-82
2022/08/03 04:39:37;;;;;;;3.55;2.33;;;;;;;16.15;96.35;98970.94;5155729;27;20066;-82
2022/08/03 04:42:06;;;;;;;4.20;2.60;;;;;;;16.11;96.10;98975.22;5141795;27;20054;-81
2022/08/03 04:44:37;;;;;;;2.45;2.25;;;;;;;16.16;95.71;98980.88;5155199;27;20047;-82
2022/08/03 04:47:04;;;;;;;2.50;2.10;;;;;;;16.02;96.25;98954.66;5155164;27;20389;-82
2022/08/03 04:49:32;;;;;;;4.57;2.70;;;;;;;16.04;96.05;98958.81;5155067;27;20065;-82
2022/08/03 04:51:59;;;;;;;2.65;2.03;;;;;;;16.28;95.39;98986.44;5154538;27;20508;-82
2022/08/03 04:54:25;;;;;;;7.88;2.58;;;;;;;16.31;95.32;98990.66;5154773;27;20055;-83
2022/08/03 04:56:52;;;;;;;3.25;2.10;;;;;;;16.41;96.06;98991.81;5153735;27;20465;-82
2022/08/03 04:59:19;;;;;;;2.60;2.10;;;;;;;16.27;96.00;98962.81;5155216;27;20126;-82
2022/08/03 05:01:47;;;;;;;3.17;2.13;;;;;;;16.44;95.75;98982.28;5152260;27;20047;-81
2022/08/03 05:04:14;;;;;;;3.30;2.40;;;;;;;16.49;96.03;98965.97;5142209;27;20145;-82
2022/08/03 05:06:40;;;;;;;2.28;1.75;;;;;;;16.60;95.21;98967.94;5154722;27;20054;-82
2022/08/03 05:09:07;;;;;;;6.35;2.60;;;;;;;16.59;96.07;98971.75;5140536;27;20042;-81
2022/08/03 05:11:34;;;;;;;3.13;2.25;;;;;;;16.55;97.10;98967.78;5145990;27;20047;-82
2022/08/03 05:14:00;;;;;;;2.65;2.45;;;;;;;16.64;97.63;98985.63;5147183;27;20056;-82
2022/08/03 05:16:27;;;;;;;3.67;2.33;;;;;;;16.78;95.05;98978.06;5150975;27;20045;-81
2022/08/03 05:18:55;;;;;;;3.78;2.53;;;;;;;16.78;94.46;98969.81;5153827;27;20495;-82
2022/08/03 05:21:21;;;;;;;2.55;2.00;;;;;;;16.77;95.29;98965.44;5151504;27;20405;-81
2022/08/03 05:23:48;;;;;;;4.82;2.08;;;;;;;16.90;94.86;98980.09;5153933;27;20057;-82
2022/08/03 05:26:17;;;;;;;3.38;2.40;;;;;;;17.06;92.78;98979.44;5154636;27;20108;-82
2022/08/03 05:28:43;;;;;;;2.47;2.28;;;;;;;17.59;89.38;98993.50;5156942;27;20395;-82
2022/08/03 05:31:11;;;;;;;3.28;2.40;;;;;;;18.10;84.40;98980.22;5169208;27;20143;-82
2022/08/03 05:33:38;;;;;;;2.65;2.17;;;;;;;18.65;80.22;98960.56;5153641;27;20091;-82
2022/08/03 05:36:06;;;;;;;2.00;1.80;;;;;;;19.27;77.22;98989.38;5154455;27;20103;-82
2022/08/03 05:38:33;;;;;;;4.50;1.98;;;;;;;19.64;74.91;98987.00;5154307;27;20053;-82
2022/08/03 05:40:59;;;;;;;4.65;2.40;;;;;;;19.79;72.52;98969.91;5152600;27;20078;-81
2022/08/03 05:43:26;;;;;;;2.50;2.30;;;;;;;20.15;72.33;98987.03;5145875;27;20082;-82
2022/08/03 05:45:53;;;;;;;3.80;1.98;;;;;;;20.40;69.95;98971.97;5149923;27;20035;-82
2022/08/03 05:48:20;;;;;;;2.47;2.00;;;;;;;20.64;68.88;98994.66;5169079;27;20046;-83
2022/08/03 05:50:47;;;;;;;3.45;2.10;;;;;;;20.94;67.59;98989.81;5154315;27;20043;-83
2022/08/03 05:53:15;;;;;;;5.90;2.00;;;;;;;20.98;67.03;98972.47;5144940;27;20065;-83
2022/08/03 05:55:41;;;;;;;4.60;2.25;;;;;;;21.14;66.21;98992.03;5145818;27;20488;-81
2022/08/03 05:58:08;;;;;;;7.53;2.33;;;;;;;21.52;63.14;98974.47;5150665;27;20078;-81
2022/08/03 06:00:35;;;;;;;4.25;2.15;;;;;;;21.64;63.73;98982.59;5143440;27;20122;-80
2022/08/03 06:03:01;;;;;;;5.95;2.50;;;;;;;21.77;62.09;98978.59;5146544;27;20043;-80
2022/08/03 06:05:28;;;;;;;7.78;2.28;;;;;;;22.08;60.57;98978.81;5153599;27;20042;-81
2022/08/03 06:07:55;;;;;;;14.90;2.25;;;;;;;22.36;59.94;98987.94;5143123;27;20504;-81
2022/08/03 06:10:22;;;;;;;16.25;2.97;;;;;;;22.81;59.00;98986.53;5140847;27;20046;-80
2022/08/03 06:12:50;;;;;;;9.32;2.47;;;;;;;23.04;57.39;98982.44;5148771;27;20076;-80
2022/08/03 06:15:17;;;;;;;16.10;2.83;;;;;;;23.20;56.69;98971.44;5145846;27;20301;-80
2022/08/03 06:17:47;;;;;;;16.33;2.20;;;;;;;23.35;55.92;98971.50;5141632;27;20073;-81
2022/08/03 06:20:16;;;;;;;10.32;2.70;;;;;;;23.74;54.57;98995.13;5148228;27;20059;-81
2022/08/03 06:22:43;;;;;;;12.53;3.23;;;;;;;23.56;55.06;98985.38;5148429;27;20553;-80
2022/08/03 06:25:10;;;;;;;13.88;4.28;;;;;;;23.73;54.09;98990.72;5148542;27;20654;-81
2022/08/03 06:27:38;;;;;;;6.75;2.15;;;;;;;23.69;54.53;98980.13;5143312;27;20054;-81
2022/08/03 06:30:07;;;;;;;13.25;2.72;;;;;;;23.94;53.70;98986.84;5147965;27;20042;-81
2022/08/03 06:32:34;;;;;;;13.88;2.70;;;;;;;23.96;53.55;98981.84;5149459;27;20145;-81
2022/08/03 06:35:00;;;;;;;21.95;3.30;;;;;;;24.25;52.77;98975.72;5146948;27;20054;-80
2022/08/03 06:37:27;;;;;;;10.25;3.20;;;;;;;24.12;53.50;98979.09;5152361;27;20159;-80
2022/08/03 06:39:54;;;;;;;12.43;3.45;;;;;;;24.35;52.82;98970.16;5150028;27;20039;-81
2022/08/03 06:42:21;;;;;;;12.93;3.13;;;;;;;25.00;50.95;98976.94;5149191;27;20071;-81
2022/08/03 06:44:50;;;;;;;13.27;2.45;;;;;;;25.22;49.99;98955.13;5150705;27;20045;-81
2022/08/03 06:47:17;;;;;;;13.73;2.45;;;;;;;25.49;50.33;98978.09;5149672;27;20069;-80
2022/08/03 06:49:43;;;;;;;10.02;2.45;;;;;;;25.73;49.11;98987.41;5149182;27;20139;-80
2022/08/03 06:52:10;;;;;;;13.00;2.40;;;;;;;25.67;48.99;98969.06;5149779;27;20059;-80
2022/08/03 06:54:36;;;;;;;10.95;2.00;;;;;;;26.05;48.49;98969.34;5151628;27;20050;-80
2022/08/03 06:57:04;;;;;;;15.48;2.42;;;;;;;26.25;48.31;98973.88;5154803;27;20067;-80
2022/08/03 06:59:31;;;;;;;9.13;2.40;;;;;;;26.12;47.69;98983.78;5154897;27;20489;-80
2022/08/03 07:01:58;;;;;;;16.05;3.50;;;;;;;26.70;46.88;98979.31;5152769;27;20035;-80
2022/08/03 07:04:25;;;;;;;14.90;2.30;;;;;;;26.87;47.32;99003.09;5153893;27;20043;-80
2022/08/03 07:06:53;;;;;;;10.00;2.33;;;;;;;26.42;46.92;98979.03;5150679;27;20062;-80
2022/08/03 07:09:19;;;;;;;2.92;1.80;;;;;;;26.64;47.68;98998.00;5152836;27;20061;-80
2022/08/03 07:11:46;;;;;;;17.45;2.30;;;;;;;26.68;47.55;98998.31;5150687;27;20057;-81
2022/08/03 07:14:12;;;;;;;17.67;2.33;;;;;;;27.26;46.19;98986.13;5152469;27;20129;-81
2022/08/03 07:16:39;;;;;;;10.07;2.15;;;;;;;27.14;47.24;98989.38;5153447;27;20042;-80
2022/08/03 07:19:07;;;;;;;13.15;2.40;;;;;;;27.50;45.65;98986.13;5149253;27;20046;-80
2022/08/03 07:21:34;;;;;;;10.57;2.17;;;;;;;27.40;45.89;98971.47;5149592;27;20053;-80
2022/08/03 07:24:00;;;;;;;7.50;1.83;;;;;;;27.60;45.56;98979.56;5153543;27;20538;-80
2022/08/03 07:26:27;;;;;;;10.25;2.03;;;;;;;27.67;44.60;98979.16;5151431;27;20046;-80
2022/08/03 07:28:53;;;;;;;3.85;1.70;;;;;;;27.69;44.63;98968.53;5153542;27;20134;-81
2022/08/03 07:31:20;;;;;;;5.18;1.80;;;;;;;27.51;44.92;98986.97;5153173;27;20049;-80
2022/08/03 07:33:47;;;;;;;3.28;2.05;;;;;;;28.18;43.77;98983.13;5152954;27;20047;-81
2022/08/03 07:36:14;;;;;;;3.72;1.67;;;;;;;28.54;43.54;98988.06;5150538;27;20134;-80
2022/08/03 07:38:41;;;;;;;5.28;1.65;;;;;;;28.60;43.01;98982.13;5153507;27;20076;-80
2022/08/03 07:41:08;;;;;;;8.50;2.13;;;;;;;28.43;44.01;98962.28;5152798;27;20051;-81
2022/08/03 07:43:34;;;;;;;4.57;1.95;;;;;;;28.47;42.84;98985.69;5149514;27;20051;-81
2022/08/03 07:46:01;;;;;;;7.22;1.98;;;;;;;28.49;42.88;98963.00;5151577;27;20456;-81
2022/08/03 07:48:27;;;;;;;7.57;1.88;;;;;;;28.35;43.38;98971.34;5153296;27;20051;-81
2022/08/03 07:50:54;;;;;;;12.02;1.80;;;;;;;28.47;43.04;98985.69;5147809;27;20051;-81
2022/08/03 07:53:22;;;;;;;11.90;2.05;;;;;;;28.37;43.70;98978.31;5153493;27;20062;-81
2022/08/03 07:55:49;;;;;;;6.07;1.80;;;;;;;28.32;44.01;98947.66;5148134;27;20104;-80
2022/08/03 07:58:16;;;;;;;11.45;2.00;;;;;;;28.38;43.71;98979.97;5152835;27;20450;-80
2022/08/03 08:00:44;;;;;;;12.13;1.73;;;;;;;28.30;43.37;98954.69;5150130;27;20051;-80
2022/08/03 08:03:11;;;;;;;5.22;1.80;;;;;;;28.63;42.88;98965.84;5151950;27;20058;-81
2022/08/03 08:05:38;;;;;;;9.18;1.83;;;;;;;28.38;43.75;98963.19;5153350;27;20042;-81
2022/08/03 08:08:05;;;;;;;6.32;1.92;;;;;;;28.51;42.99;98958.75;5152095;27;20049;-80
2022/08/03 08:10:33;;;;;;;9.27;2.00;;;;;;;28.49;43.67;98975.00;5134418;27;20133;-80
2022/08/03 08:13:01;;;;;;;3.45;1.52;;;;;;;28.75;42.47;98969.78;5150803;27;20426;-79
2022/08/03 08:15:28;;;;;;;5.20;1.52;;;;;;;28.59;43.77;98954.44;5153389;27;20064;-81
2022/08/03 08:17:56;;;;;;;11.90;2.00;;;;;;;28.71;43.20;98951.13;5151807;27;20046;-81
2022/08/03 08:20:25;;;;;;;10.30;1.52;;;;;;;28.72;42.51;98972.38;5150937;27;20049;-81
2022/08/03 08:22:52;;;;;;;19.98;3.13;;;;;;;28.82;42.60;98968.56;5150411;27;20066;-80
2022/08/03 08:25:19;;;;;;;2.95;1.83;;;;;;;28.62;43.19;98958.59;5154166;27;20133;-80
2022/08/03 08:27:49;;;;;;;2.20;1.52;;;;;;;29.01;42.84;98949.69;5155146;27;20045;-80
2022/08/03 08:30:17;;;;;;;;;;;;;;;28.95;42.26;98962.94;5135138;27;20439;-80
2022/08/03 08:32:44;;;;;;;10.30;2.00;;;;;;;29.12;43.16;98961.47;5150457;27;20384;-82
2022/08/03 08:35:11;;;;;;;3.45;1.40;;;;;;;29.34;41.72;98957.91;5149828;27;20054;-81
2022/08/03 08:37:39;;;;;;;3.72;1.60;;;;;;;29.34;42.20;98969.13;5149439;27;20041;-81
2022/08/03 08:40:07;;;;;;;4.70;1.67;;;;;;;29.12;41.80;98948.31;5156107;27;20076;-82
2022/08/03 08:42:34;;;;;;;3.88;1.73;;;;;;;29.38;41.58;98958.97;5133909;27;20047;-81
2022/08/03 08:45:05;;;;;;;5.40;1.20;;;;;;;29.37;41.24;98943.28;5137182;27;20057;-82
2022/08/03 08:47:32;;;;;;;3.15;1.40;;;;;;;29.60;40.46;98960.97;5152080;27;20548;-81
2022/08/03 08:50:01;;;;;;;2.60;1.40;;;;;;;29.57;40.90;98935.56;5149691;27;20447;-81
2022/08/03 08:52:29;;;;;;;8.85;1.55;;;;;;;29.51;40.66;98946.06;5149382;27;20512;-82
2022/08/03 08:55:00;;;;;;;2.28;1.55;;;;;;;29.46;40.85;98944.22;5153740;27;20065;-79
2022/08/03 08:57:31;;;;;;;8.80;1.52;;;;;;;29.16;41.45;98936.47;5144302;27;20107;-79
2022/08/03 08:59:58;;;;;;;1.77;1.45;;;;;;;29.49;41.15;98956.75;5152305;27;20045;-79
2022/08/03 09:02:30;;;;;;;5.65;1.63;;;;;;;29.48;40.75;98929.91;5153497;27;20489;-79
2022/08/03 09:04:57;;;;;;;3.30;1.70;;;;;;;29.73;39.74;98945.25;5151008;27;20050;-79
2022/08/03 09:07:24;;;;;;;3.90;1.40;;;;;;;29.79;39.25;98945.97;5152566;27;20065;-79
2022/08/03 09:09:51;;;;;;;1.50;1.10;;;;;;;29.59;39.61;98933.28;5152431;27;20041;-80
2022/08/03 09:12:17;;;;;;;3.88;1.40;;;;;;;29.79;39.05;98951.56;5151106;27;20532;-80
2022/08/03 09:14:44;;;;;;;6.75;1.50;;;;;;;29.97;38.56;98944.94;5144245;27;20053;-79
2022/08/03 09:17:11;;;;;;;5.68;1.55;;;;;;;30.05;38.15;98956.53;5151051;27;20046;-80
2022/08/03 09:19:39;;;;;;;2.42;1.38;;;;;;;30.01;38.44;98936.75;5152681;27;20485;-80
2022/08/03 09:22:11;;;;;;;1.00;0.90;;;;;;;30.22;36.49;98942.66;5145949;27;20499;-81
2022/08/03 09:24:39;;;;;;;3.75;1.20;;;;;;;30.12;36.07;98932.53;5146406;27;20493;-80
2022/08/03 09:27:12;;;;;;;4.17;1.17;;;;;;;30.24;35.43;98933.91;5149745;27;20451;-80
2022/08/03 09:29:39;;;;;;;1.20;1.10;;;;;;;30.39;37.14;98933.50;5143211;27;20046;-79
2022/08/03 09:32:05;;;;;;;2.10;1.20;;;;;;;30.36;37.08;98932.16;5147273;27;20050;-81
2022/08/03 09:34:32;;;;;;;2.53;1.30;;;;;;;30.52;37.06;98938.22;5151987;27;20130;-80
2022/08/03 09:37:00;;;;;;;3.17;1.38;;;;;;;30.44;36.92;98932.56;5147811;27;20046;-81
2022/08/03 09:39:30;;;;;;;5.25;1.52;;;;;;;30.64;36.75;98932.00;5142844;27;20075;-81
2022/08/03 09:42:08;;;;;;;1.77;1.20;;;;;;;30.86;37.03;98952.69;5148071;27;20422;-81
2022/08/03 09:44:37;;;;;;;2.83;1.02;;;;;;;30.64;36.03;98912.34;5151978;27;20053;-80
2022/08/03 09:47:05;;;;;;;4.47;1.38;;;;;;;30.66;36.67;98924.06;5147098;27;20519;-80
2022/08/03 09:49:32;;;;;;;1.70;1.20;;;;;;;30.88;36.16;98936.38;5149709;27;20043;-81
2022/08/03 09:52:13;;;;;;;2.40;1.30;;;;;;;30.84;35.95;98918.53;5148755;27;20055;-81
2022/08/03 09:54:41;;;;;;;2.38;1.20;;;;;;;30.95;35.73;98916.22;5146717;27;20103;-81
2022/08/03 09:57:08;;;;;;;5.00;1.40;;;;;;;31.06;35.34;98937.28;5144906;27;20046;-81
2022/08/03 09:59:35;;;;;;;3.40;1.10;;;;;;;30.82;34.73;98915.22;5148203;27;20043;-82
2022/08/03 10:02:01;;;;;;;2.88;1.15;;;;;;;31.13;34.14;98925.53;5151761;27;20054;-81
2022/08/03 10:04:35;;;;;;;1.50;1.13;;;;;;;31.32;34.37;98928.06;5148100;27;20047;-82
2022/08/03 10:07:08;;;;;;;3.05;1.10;;;;;;;31.33;34.88;98922.13;5148956;27;20052;-80
2022/08/03 10:09:35;;;;;;;4.28;1.20;;;;;;;31.38;33.51;98893.84;5149840;27;20053;-80
2022/08/03 10:12:09;;;;;;;2.15;1.20;;;;;;;31.59;33.62;98913.72;5146928;27;20050;-80
2022/08/03 10:14:37;;;;;;;2.03;1.17;;;;;;;31.62;33.54;98905.78;5150839;27;20043;-80
2022/08/03 10:17:04;;;;;;;1.77;1.25;;;;;;;31.73;33.57;98904.28;5146801;27;20054;-80
2022/08/03 10:19:31;;;;;;;3.65;1.08;;;;;;;31.73;34.10;98888.25;5137799;27;20055;-81
2022/08/03 10:22:02;;;;;;;3.22;1.38;;;;;;;31.83;33.19;98900.31;5152004;27;20045;-80
2022/08/03 10:24:33;;;;;;;4.93;1.10;;;;;;;31.69;33.26;98880.81;5152928;27;20426;-81
2022/08/03 10:27:03;;;;;;;1.75;1.15;;;;;;;31.74;32.44;98889.09;5153301;27;20401;-81
2022/08/03 10:29:32;;;;;;;3.00;1.10;;;;;;;31.95;32.31;98906.06;5147883;27;20417;-81
2022/08/03 10:32:01;;;;;;;4.55;1.00;;;;;;;32.07;33.19;98883.72;5152544;27;20042;-81
2022/08/03 10:34:34;;;;;;;3.03;1.43;;;;;;;31.88;32.32;98894.50;5157202;27;20054;-81
2022/08/03 10:37:07;;;;;;;3.90;1.00;;;;;;;31.83;32.76;98892.69;5155566;27;20306;-81
2022/08/03 10:39:36;;;;;;;1.38;1.00;;;;;;;31.79;32.68;98896.50;5151794;27;20043;-81
2022/08/03 10:42:03;;;;;;;1.00;0.90;;;;;;;31.86;31.98;98872.34;5156697;27;20050;-81
2022/08/03 10:44:37;;;;;;;1.70;0.93;;;;;;;32.06;31.89;98876.44;5157112;27;20057;-81
2022/08/03 10:47:04;;;;;;;2.58;1.30;;;;;;;32.20;31.81;98861.38;5157103;27;20046;-79
2022/08/03 10:49:32;;;;;;;1.55;1.00;;;;;;;32.31;31.26;98873.06;5151103;27;20061;-79
2022/08/03 10:51:59;;;;;;;6.10;1.10;;;;;;;32.42;31.46;98874.34;5151564;27;20035;-79
2022/08/03 10:57:33;;;;;;;2.08;1.20;;;;;;;32.32;31.25;98858.66;5156944;27;20047;-80
2022/08/03 10:57:42;;;;;;;2.55;1.15;;;;;;;32.71;32.60;98867.94;5149668;27;20058;-79
2022/08/03 11:00:10;;;;;;;2.53;1.48;;;;;;;32.68;30.40;98857.34;5156523;27;20134;-79
2022/08/03 11:03:08;;;;;;;2.45;1.05;;;;;;;32.73;30.72;98874.06;5148640;27;20042;-79
2022/08/03 11:05:40;;;;;;;1.80;1.17;;;;;;;32.89;30.08;98862.22;5151616;27;20081;-79
2022/08/03 11:08:28;;;;;;;2.28;1.27;;;;;;;33.29;30.54;98875.88;5142086;27;20504;-79
2022/08/03 11:10:58;;;;;;;2.65;1.08;;;;;;;33.41;29.81;98872.25;5139917;27;20050;-79
2022/08/03 11:13:29;;;;;;;1.17;1.02;;;;;;;33.69;29.50;98872.50;5153510;27;20051;-79
2022/08/03 11:15:58;;;;;;;2.40;1.13;;;;;;;33.45;29.23;98859.97;5157234;27;20070;-79
2022/08/03 11:18:25;;;;;;;1.23;1.13;;;;;;;33.07;29.69;98846.81;5147171;27;20048;-79
2022/08/03 11:20:53;;;;;;;1.75;1.05;;;;;;;32.97;29.95;98838.78;5150560;27;20039;-79
2022/08/03 11:23:40;;;;;;;4.93;1.02;;;;;;;32.93;30.38;98844.28;5148308;27;20047;-80
2022/08/03 11:26:15;;;;;;;19.92;1.70;;;;;;;32.96;30.82;98851.22;5156824;27;20054;-79
2022/08/03 11:28:44;;;;;;;1.90;1.10;;;;;;;32.95;30.69;98838.31;5156319;27;20760;-79
2022/08/03 11:31:56;;;;;;;1.75;1.08;;;;;;;33.43;29.80;98848.22;5149511;27;20042;-79
2022/08/03 11:34:23;;;;;;;2.78;1.25;;;;;;;33.10;29.49;98848.97;5135067;27;20509;-81
2022/08/03 11:37:22;;;;;;;1.40;1.13;;;;;;;33.21;29.19;98855.03;5149152;27;20042;-80
2022/08/03 11:39:51;;;;;;;2.10;1.10;;;;;;;33.22;29.57;98845.41;5135677;27;20463;-80
2022/08/03 11:42:47;;;;;;;2.08;1.13;;;;;;;33.70;29.26;98854.44;5153612;27;20473;-80
2022/08/03 11:45:14;;;;;;;2.40;1.20;;;;;;;33.69;28.84;98847.97;5153774;27;20468;-81
2022/08/03 11:47:43;;;;;;;1.85;1.02;;;;;;;33.54;29.13;98845.78;5155226;27;20051;-80